sensor_id;sensor_type;location;lat;lon;timestamp;P1;durP1;ratioP1;P2;durP2;ratioP2
5616;SDS011;2830;50.656;7.568;2023-12-07T00:02:05;16.80;;;10.88;;
5616;SDS011;2830;50.656;7.568;2023-12-07T00:04:32;19.95;;;10.48;;
5616;SDS011;2830;50.656;7.568;2023-12-07T00:06:59;14.57;;;10.23;;
5616;SDS011;2830;50.656;7.568;2023-12-07T00:09:25;14.85;;;11.30;;
5616;SDS011;2830;50.656;7.568;2023-12-07T00:11:52;16.45;;;10.93;;
5616;SDS011;2830;50.656;7.568;2023-12-07T00:14:19;17.15;;;11.30;;
5616;SDS011;2830;50.656;7.568;2023-12-07T00:16:46;15.65;;;10.77;;
5616;SDS011;2830;50.656;7.568;2023-12-07T00:19:12;15.20;;;10.90;;
5616;SDS011;2830;50.656;7.568;2023-12-07T00:21:39;15.00;;;10.52;;
5616;SDS011;2830;50.656;7.568;2023-12-07T00:24:06;14.02;;;10.10;;
5616;SDS011;2830;50.656;7.568;2023-12-07T00:26:33;13.15;;;9.05;;
5616;SDS011;2830;50.656;7.568;2023-12-07T00:28:59;17.02;;;10.88;;
5616;SDS011;2830;50.656;7.568;2023-12-07T00:31:26;16.75;;;10.85;;
5616;SDS011;2830;50.656;7.568;2023-12-07T00:33:53;16.70;;;10.43;;
5616;SDS011;2830;50.656;7.568;2023-12-07T00:36:20;18.38;;;11.43;;
5616;SDS011;2830;50.656;7.568;2023-12-07T00:38:47;15.60;;;9.80;;
5616;SDS011;2830;50.656;7.568;2023-12-07T00:41:14;18.88;;;10.70;;
5616;SDS011;2830;50.656;7.568;2023-12-07T00:43:41;13.45;;;9.85;;
5616;SDS011;2830;50.656;7.568;2023-12-07T00:46:07;15.77;;;10.63;;
5616;SDS011;2830;50.656;7.568;2023-12-07T00:48:34;13.85;;;9.05;;
5616;SDS011;2830;50.656;7.568;2023-12-07T00:51:01;13.43;;;9.30;;
5616;SDS011;2830;50.656;7.568;2023-12-07T00:53:29;15.88;;;10.55;;
5616;SDS011;2830;50.656;7.568;2023-12-07T00:55:55;14.70;;;9.40;;
5616;SDS011;2830;50.656;7.568;2023-12-07T00:58:22;14.10;;;9.18;;
5616;SDS011;2830;50.656;7.568;2023-12-07T01:00:49;21.80;;;11.70;;
5616;SDS011;2830;50.656;7.568;2023-12-07T01:03:16;17.40;;;10.73;;
5616;SDS011;2830;50.656;7.568;2023-12-07T01:05:44;14.65;;;9.38;;
5616;SDS011;2830;50.656;7.568;2023-12-07T01:08:12;14.38;;;9.45;;
5616;SDS011;2830;50.656;7.568;2023-12-07T01:10:39;16.00;;;10.48;;
5616;SDS011;2830;50.656;7.568;2023-12-07T01:13:05;14.80;;;9.60;;
5616;SDS011;2830;50.656;7.568;2023-12-07T01:15:32;16.52;;;10.30;;
5616;SDS011;2830;50.656;7.568;2023-12-07T01:17:59;13.63;;;8.95;;
5616;SDS011;2830;50.656;7.568;2023-12-07T01:20:25;16.83;;;8.98;;
5616;SDS011;2830;50.656;7.568;2023-12-07T01:22:52;14.50;;;9.40;;
5616;SDS011;2830;50.656;7.568;2023-12-07T01:25:19;16.73;;;10.38;;
5616;SDS011;2830;50.656;7.568;2023-12-07T01:27:49;14.60;;;9.25;;
5616;SDS011;2830;50.656;7.568;2023-12-07T01:30:15;13.20;;;9.35;;
5616;SDS011;2830;50.656;7.568;2023-12-07T01:32:43;14.75;;;10.30;;
5616;SDS011;2830;50.656;7.568;2023-12-07T01:35:10;15.80;;;9.55;;
5616;SDS011;2830;50.656;7.568;2023-12-07T01:37:37;12.68;;;9.20;;
5616;SDS011;2830;50.656;7.568;2023-12-07T01:42:37;11.95;;;8.73;;
5616;SDS011;2830;50.656;7.568;2023-12-07T01:45:05;16.42;;;9.70;;
5616;SDS011;2830;50.656;7.568;2023-12-07T01:47:33;12.27;;;8.05;;
5616;SDS011;2830;50.656;7.568;2023-12-07T01:50:02;12.88;;;8.45;;
5616;SDS011;2830;50.656;7.568;2023-12-07T01:52:34;13.13;;;9.55;;
5616;SDS011;2830;50.656;7.568;2023-12-07T01:55:04;11.18;;;7.50;;
5616;SDS011;2830;50.656;7.568;2023-12-07T01:57:33;12.43;;;8.27;;
5616;SDS011;2830;50.656;7.568;2023-12-07T02:00:00;13.15;;;9.32;;
5616;SDS011;2830;50.656;7.568;2023-12-07T02:02:27;14.70;;;9.05;;
5616;SDS011;2830;50.656;7.568;2023-12-07T02:04:54;15.23;;;10.32;;
5616;SDS011;2830;50.656;7.568;2023-12-07T02:07:22;15.82;;;10.05;;
5616;SDS011;2830;50.656;7.568;2023-12-07T02:09:49;16.77;;;9.85;;
5616;SDS011;2830;50.656;7.568;2023-12-07T02:12:16;13.07;;;8.75;;
5616;SDS011;2830;50.656;7.568;2023-12-07T02:14:44;17.02;;;9.27;;
5616;SDS011;2830;50.656;7.568;2023-12-07T02:17:17;12.30;;;7.93;;
5616;SDS011;2830;50.656;7.568;2023-12-07T02:19:52;13.00;;;9.75;;
5616;SDS011;2830;50.656;7.568;2023-12-07T02:22:31;12.85;;;9.30;;
5616;SDS011;2830;50.656;7.568;2023-12-07T02:25:04;13.63;;;9.32;;
5616;SDS011;2830;50.656;7.568;2023-12-07T02:30:09;16.05;;;10.05;;
5616;SDS011;2830;50.656;7.568;2023-12-07T02:32:37;12.45;;;9.23;;
5616;SDS011;2830;50.656;7.568;2023-12-07T02:35:05;12.73;;;8.60;;
5616;SDS011;2830;50.656;7.568;2023-12-07T02:37:33;16.13;;;8.57;;
5616;SDS011;2830;50.656;7.568;2023-12-07T02:40:05;12.00;;;8.60;;
5616;SDS011;2830;50.656;7.568;2023-12-07T02:42:39;12.40;;;8.90;;
5616;SDS011;2830;50.656;7.568;2023-12-07T02:45:07;14.60;;;9.48;;
5616;SDS011;2830;50.656;7.568;2023-12-07T02:47:35;13.90;;;9.30;;
5616;SDS011;2830;50.656;7.568;2023-12-07T02:50:03;12.63;;;8.85;;
5616;SDS011;2830;50.656;7.568;2023-12-07T02:52:32;14.73;;;8.55;;
5616;SDS011;2830;50.656;7.568;2023-12-07T02:54:59;12.65;;;8.60;;
5616;SDS011;2830;50.656;7.568;2023-12-07T02:57:26;14.52;;;9.05;;
5616;SDS011;2830;50.656;7.568;2023-12-07T02:59:52;10.52;;;7.90;;
5616;SDS011;2830;50.656;7.568;2023-12-07T03:02:19;15.70;;;10.48;;
5616;SDS011;2830;50.656;7.568;2023-12-07T03:04:47;13.32;;;8.88;;
5616;SDS011;2830;50.656;7.568;2023-12-07T03:07:14;14.23;;;9.10;;
5616;SDS011;2830;50.656;7.568;2023-12-07T03:09:41;12.98;;;9.18;;
5616;SDS011;2830;50.656;7.568;2023-12-07T03:12:08;13.52;;;9.05;;
5616;SDS011;2830;50.656;7.568;2023-12-07T03:14:34;13.90;;;8.63;;
5616;SDS011;2830;50.656;7.568;2023-12-07T03:17:01;14.80;;;9.38;;
5616;SDS011;2830;50.656;7.568;2023-12-07T03:19:28;14.55;;;8.00;;
5616;SDS011;2830;50.656;7.568;2023-12-07T03:21:54;12.80;;;7.40;;
5616;SDS011;2830;50.656;7.568;2023-12-07T03:24:21;14.65;;;8.68;;
5616;SDS011;2830;50.656;7.568;2023-12-07T03:26:48;12.00;;;8.57;;
5616;SDS011;2830;50.656;7.568;2023-12-07T03:29:14;11.63;;;8.02;;
5616;SDS011;2830;50.656;7.568;2023-12-07T03:31:42;10.80;;;7.32;;
5616;SDS011;2830;50.656;7.568;2023-12-07T03:34:08;9.90;;;7.22;;
5616;SDS011;2830;50.656;7.568;2023-12-07T03:36:35;10.60;;;7.15;;
5616;SDS011;2830;50.656;7.568;2023-12-07T03:39:02;10.77;;;6.78;;
5616;SDS011;2830;50.656;7.568;2023-12-07T03:41:31;10.48;;;7.85;;
5616;SDS011;2830;50.656;7.568;2023-12-07T03:43:57;10.95;;;6.55;;
5616;SDS011;2830;50.656;7.568;2023-12-07T03:46:24;10.88;;;7.43;;
5616;SDS011;2830;50.656;7.568;2023-12-07T03:48:51;11.23;;;7.40;;
5616;SDS011;2830;50.656;7.568;2023-12-07T03:51:18;12.10;;;7.57;;
5616;SDS011;2830;50.656;7.568;2023-12-07T03:53:44;11.95;;;7.85;;
5616;SDS011;2830;50.656;7.568;2023-12-07T03:56:21;11.90;;;8.32;;
5616;SDS011;2830;50.656;7.568;2023-12-07T03:58:52;31.45;;;8.63;;
5616;SDS011;2830;50.656;7.568;2023-12-07T04:01:23;19.20;;;9.52;;
5616;SDS011;2830;50.656;7.568;2023-12-07T04:03:54;13.35;;;8.23;;
5616;SDS011;2830;50.656;7.568;2023-12-07T04:06:22;12.57;;;7.47;;
5616;SDS011;2830;50.656;7.568;2023-12-07T04:08:49;11.20;;;7.65;;
5616;SDS011;2830;50.656;7.568;2023-12-07T04:11:16;17.30;;;9.75;;
5616;SDS011;2830;50.656;7.568;2023-12-07T04:13:44;12.52;;;9.10;;
5616;SDS011;2830;50.656;7.568;2023-12-07T04:16:11;20.95;;;9.98;;
5616;SDS011;2830;50.656;7.568;2023-12-07T04:18:38;19.02;;;9.07;;
5616;SDS011;2830;50.656;7.568;2023-12-07T04:21:05;21.05;;;10.10;;
5616;SDS011;2830;50.656;7.568;2023-12-07T04:23:33;26.50;;;9.43;;
5616;SDS011;2830;50.656;7.568;2023-12-07T04:26:00;46.55;;;10.65;;
5616;SDS011;2830;50.656;7.568;2023-12-07T04:28:26;13.85;;;8.07;;
5616;SDS011;2830;50.656;7.568;2023-12-07T04:30:53;13.57;;;10.13;;
5616;SDS011;2830;50.656;7.568;2023-12-07T04:33:20;31.65;;;11.40;;
5616;SDS011;2830;50.656;7.568;2023-12-07T04:35:48;30.83;;;8.85;;
5616;SDS011;2830;50.656;7.568;2023-12-07T04:38:15;28.38;;;8.80;;
5616;SDS011;2830;50.656;7.568;2023-12-07T04:40:41;25.38;;;8.15;;
5616;SDS011;2830;50.656;7.568;2023-12-07T04:43:08;12.65;;;7.65;;
5616;SDS011;2830;50.656;7.568;2023-12-07T04:45:35;19.88;;;9.93;;
5616;SDS011;2830;50.656;7.568;2023-12-07T04:48:02;12.20;;;7.60;;
5616;SDS011;2830;50.656;7.568;2023-12-07T04:50:31;29.40;;;9.13;;
5616;SDS011;2830;50.656;7.568;2023-12-07T04:52:57;10.20;;;7.10;;
5616;SDS011;2830;50.656;7.568;2023-12-07T04:55:24;17.83;;;8.73;;
5616;SDS011;2830;50.656;7.568;2023-12-07T04:57:52;12.98;;;7.95;;
5616;SDS011;2830;50.656;7.568;2023-12-07T05:00:19;13.40;;;8.05;;
5616;SDS011;2830;50.656;7.568;2023-12-07T05:02:46;15.07;;;8.63;;
5616;SDS011;2830;50.656;7.568;2023-12-07T05:05:14;12.05;;;9.15;;
5616;SDS011;2830;50.656;7.568;2023-12-07T05:07:40;12.27;;;7.88;;
5616;SDS011;2830;50.656;7.568;2023-12-07T05:10:07;9.88;;;6.95;;
5616;SDS011;2830;50.656;7.568;2023-12-07T05:12:35;12.23;;;8.32;;
5616;SDS011;2830;50.656;7.568;2023-12-07T05:15:02;14.38;;;7.88;;
5616;SDS011;2830;50.656;7.568;2023-12-07T05:17:30;15.07;;;9.10;;
5616;SDS011;2830;50.656;7.568;2023-12-07T05:19:57;10.80;;;7.20;;
5616;SDS011;2830;50.656;7.568;2023-12-07T05:22:26;12.73;;;8.32;;
5616;SDS011;2830;50.656;7.568;2023-12-07T05:24:53;13.65;;;9.93;;
5616;SDS011;2830;50.656;7.568;2023-12-07T05:27:20;16.98;;;9.95;;
5616;SDS011;2830;50.656;7.568;2023-12-07T05:29:47;16.70;;;10.15;;
5616;SDS011;2830;50.656;7.568;2023-12-07T05:32:14;15.57;;;10.30;;
5616;SDS011;2830;50.656;7.568;2023-12-07T05:34:41;16.20;;;10.32;;
5616;SDS011;2830;50.656;7.568;2023-12-07T05:37:08;19.20;;;10.70;;
5616;SDS011;2830;50.656;7.568;2023-12-07T05:39:34;18.73;;;10.70;;
5616;SDS011;2830;50.656;7.568;2023-12-07T05:42:02;21.42;;;12.45;;
5616;SDS011;2830;50.656;7.568;2023-12-07T05:44:30;18.45;;;11.63;;
5616;SDS011;2830;50.656;7.568;2023-12-07T05:46:57;23.08;;;12.02;;
5616;SDS011;2830;50.656;7.568;2023-12-07T05:49:23;15.70;;;10.45;;
5616;SDS011;2830;50.656;7.568;2023-12-07T05:51:50;15.77;;;10.45;;
5616;SDS011;2830;50.656;7.568;2023-12-07T05:54:19;16.45;;;10.55;;
5616;SDS011;2830;50.656;7.568;2023-12-07T05:56:48;16.33;;;10.40;;
5616;SDS011;2830;50.656;7.568;2023-12-07T05:59:15;16.73;;;9.45;;
5616;SDS011;2830;50.656;7.568;2023-12-07T06:01:41;17.50;;;10.40;;
5616;SDS011;2830;50.656;7.568;2023-12-07T06:04:10;18.58;;;10.98;;
5616;SDS011;2830;50.656;7.568;2023-12-07T06:06:38;20.15;;;10.95;;
5616;SDS011;2830;50.656;7.568;2023-12-07T06:09:05;20.02;;;9.95;;
5616;SDS011;2830;50.656;7.568;2023-12-07T06:11:32;19.70;;;11.02;;
5616;SDS011;2830;50.656;7.568;2023-12-07T06:14:00;20.13;;;10.90;;
5616;SDS011;2830;50.656;7.568;2023-12-07T06:16:27;19.60;;;11.50;;
5616;SDS011;2830;50.656;7.568;2023-12-07T06:18:53;17.73;;;10.20;;
5616;SDS011;2830;50.656;7.568;2023-12-07T06:21:20;22.40;;;12.02;;
5616;SDS011;2830;50.656;7.568;2023-12-07T06:23:47;17.75;;;11.48;;
5616;SDS011;2830;50.656;7.568;2023-12-07T06:26:15;16.98;;;10.20;;
5616;SDS011;2830;50.656;7.568;2023-12-07T06:28:41;23.85;;;10.48;;
5616;SDS011;2830;50.656;7.568;2023-12-07T06:31:15;16.52;;;11.30;;
5616;SDS011;2830;50.656;7.568;2023-12-07T06:33:46;15.55;;;9.98;;
5616;SDS011;2830;50.656;7.568;2023-12-07T06:36:22;15.07;;;9.43;;
5616;SDS011;2830;50.656;7.568;2023-12-07T06:38:50;18.15;;;9.98;;
5616;SDS011;2830;50.656;7.568;2023-12-07T06:41:16;16.05;;;11.35;;
5616;SDS011;2830;50.656;7.568;2023-12-07T06:43:43;19.80;;;10.07;;
5616;SDS011;2830;50.656;7.568;2023-12-07T06:46:13;15.50;;;10.73;;
5616;SDS011;2830;50.656;7.568;2023-12-07T06:48:42;15.52;;;10.25;;
5616;SDS011;2830;50.656;7.568;2023-12-07T06:51:09;16.92;;;9.85;;
5616;SDS011;2830;50.656;7.568;2023-12-07T06:53:36;35.47;;;13.60;;
5616;SDS011;2830;50.656;7.568;2023-12-07T06:56:02;21.75;;;11.38;;
5616;SDS011;2830;50.656;7.568;2023-12-07T06:58:29;21.02;;;10.45;;
5616;SDS011;2830;50.656;7.568;2023-12-07T07:00:56;26.13;;;12.38;;
5616;SDS011;2830;50.656;7.568;2023-12-07T07:03:24;24.48;;;12.00;;
5616;SDS011;2830;50.656;7.568;2023-12-07T07:05:51;31.73;;;12.02;;
5616;SDS011;2830;50.656;7.568;2023-12-07T07:08:17;44.13;;;13.13;;
5616;SDS011;2830;50.656;7.568;2023-12-07T07:10:44;34.33;;;12.38;;
5616;SDS011;2830;50.656;7.568;2023-12-07T07:13:13;18.55;;;10.60;;
5616;SDS011;2830;50.656;7.568;2023-12-07T07:15:41;25.75;;;11.25;;
5616;SDS011;2830;50.656;7.568;2023-12-07T07:18:09;23.13;;;10.65;;
5616;SDS011;2830;50.656;7.568;2023-12-07T07:20:36;23.10;;;11.27;;
5616;SDS011;2830;50.656;7.568;2023-12-07T07:23:03;26.80;;;11.98;;
5616;SDS011;2830;50.656;7.568;2023-12-07T07:25:30;20.10;;;11.25;;
5616;SDS011;2830;50.656;7.568;2023-12-07T07:27:57;22.23;;;12.13;;
5616;SDS011;2830;50.656;7.568;2023-12-07T07:30:24;18.63;;;10.95;;
5616;SDS011;2830;50.656;7.568;2023-12-07T07:32:50;17.95;;;11.80;;
5616;SDS011;2830;50.656;7.568;2023-12-07T07:35:17;19.95;;;10.15;;
5616;SDS011;2830;50.656;7.568;2023-12-07T07:37:44;21.52;;;11.80;;
5616;SDS011;2830;50.656;7.568;2023-12-07T07:40:11;20.88;;;12.82;;
5616;SDS011;2830;50.656;7.568;2023-12-07T07:42:38;20.58;;;12.40;;
5616;SDS011;2830;50.656;7.568;2023-12-07T07:45:10;20.95;;;12.73;;
5616;SDS011;2830;50.656;7.568;2023-12-07T07:47:37;21.50;;;11.63;;
5616;SDS011;2830;50.656;7.568;2023-12-07T07:50:04;20.70;;;11.73;;
5616;SDS011;2830;50.656;7.568;2023-12-07T07:52:32;23.10;;;12.85;;
5616;SDS011;2830;50.656;7.568;2023-12-07T07:55:00;21.40;;;12.80;;
5616;SDS011;2830;50.656;7.568;2023-12-07T07:57:29;19.90;;;12.10;;
5616;SDS011;2830;50.656;7.568;2023-12-07T07:59:57;21.33;;;12.80;;
5616;SDS011;2830;50.656;7.568;2023-12-07T08:02:24;23.25;;;12.98;;
5616;SDS011;2830;50.656;7.568;2023-12-07T08:04:51;22.40;;;11.70;;
5616;SDS011;2830;50.656;7.568;2023-12-07T08:07:18;19.73;;;12.00;;
5616;SDS011;2830;50.656;7.568;2023-12-07T08:09:45;22.15;;;13.45;;
5616;SDS011;2830;50.656;7.568;2023-12-07T08:12:12;23.58;;;13.90;;
5616;SDS011;2830;50.656;7.568;2023-12-07T08:14:38;20.60;;;13.90;;
5616;SDS011;2830;50.656;7.568;2023-12-07T08:17:06;20.58;;;12.50;;
5616;SDS011;2830;50.656;7.568;2023-12-07T08:19:32;20.75;;;12.18;;
5616;SDS011;2830;50.656;7.568;2023-12-07T08:21:59;17.88;;;11.05;;
5616;SDS011;2830;50.656;7.568;2023-12-07T08:24:26;16.85;;;12.13;;
5616;SDS011;2830;50.656;7.568;2023-12-07T08:26:53;16.70;;;11.30;;
5616;SDS011;2830;50.656;7.568;2023-12-07T08:29:19;18.38;;;11.10;;
5616;SDS011;2830;50.656;7.568;2023-12-07T08:31:47;18.45;;;11.50;;
5616;SDS011;2830;50.656;7.568;2023-12-07T08:34:14;16.50;;;10.70;;
5616;SDS011;2830;50.656;7.568;2023-12-07T08:36:41;19.35;;;9.70;;
5616;SDS011;2830;50.656;7.568;2023-12-07T08:39:07;20.35;;;11.45;;
5616;SDS011;2830;50.656;7.568;2023-12-07T08:41:36;16.73;;;10.63;;
5616;SDS011;2830;50.656;7.568;2023-12-07T08:44:03;18.42;;;11.48;;
5616;SDS011;2830;50.656;7.568;2023-12-07T08:46:31;16.02;;;10.50;;
5616;SDS011;2830;50.656;7.568;2023-12-07T08:48:58;19.02;;;10.35;;
5616;SDS011;2830;50.656;7.568;2023-12-07T08:51:25;22.13;;;10.93;;
5616;SDS011;2830;50.656;7.568;2023-12-07T08:53:52;14.63;;;10.80;;
5616;SDS011;2830;50.656;7.568;2023-12-07T08:56:21;16.23;;;10.38;;
5616;SDS011;2830;50.656;7.568;2023-12-07T08:58:47;17.63;;;9.07;;
5616;SDS011;2830;50.656;7.568;2023-12-07T09:01:14;20.08;;;12.57;;
5616;SDS011;2830;50.656;7.568;2023-12-07T09:03:57;14.45;;;9.75;;
5616;SDS011;2830;50.656;7.568;2023-12-07T09:06:24;15.38;;;9.00;;
5616;SDS011;2830;50.656;7.568;2023-12-07T09:08:51;15.02;;;9.80;;
5616;SDS011;2830;50.656;7.568;2023-12-07T09:11:18;16.73;;;11.23;;
5616;SDS011;2830;50.656;7.568;2023-12-07T09:13:45;13.88;;;9.68;;
5616;SDS011;2830;50.656;7.568;2023-12-07T09:16:11;14.27;;;9.07;;
5616;SDS011;2830;50.656;7.568;2023-12-07T09:18:38;12.73;;;9.68;;
5616;SDS011;2830;50.656;7.568;2023-12-07T09:21:05;18.83;;;10.20;;
5616;SDS011;2830;50.656;7.568;2023-12-07T09:23:32;14.95;;;9.13;;
5616;SDS011;2830;50.656;7.568;2023-12-07T09:25:59;16.55;;;10.35;;
5616;SDS011;2830;50.656;7.568;2023-12-07T09:28:25;13.82;;;9.85;;
5616;SDS011;2830;50.656;7.568;2023-12-07T09:30:52;17.08;;;11.07;;
5616;SDS011;2830;50.656;7.568;2023-12-07T09:33:19;14.90;;;8.70;;
5616;SDS011;2830;50.656;7.568;2023-12-07T09:35:47;12.80;;;8.65;;
5616;SDS011;2830;50.656;7.568;2023-12-07T09:38:15;22.10;;;9.75;;
5616;SDS011;2830;50.656;7.568;2023-12-07T09:40:42;15.10;;;10.50;;
5616;SDS011;2830;50.656;7.568;2023-12-07T09:43:10;14.40;;;9.07;;
5616;SDS011;2830;50.656;7.568;2023-12-07T09:45:38;17.92;;;9.68;;
5616;SDS011;2830;50.656;7.568;2023-12-07T09:48:05;13.85;;;9.30;;
5616;SDS011;2830;50.656;7.568;2023-12-07T09:50:34;14.35;;;9.30;;
5616;SDS011;2830;50.656;7.568;2023-12-07T09:53:00;15.85;;;10.20;;
5616;SDS011;2830;50.656;7.568;2023-12-07T09:55:34;11.82;;;8.88;;
5616;SDS011;2830;50.656;7.568;2023-12-07T09:58:03;14.35;;;9.70;;
5616;SDS011;2830;50.656;7.568;2023-12-07T10:00:32;12.40;;;9.18;;
5616;SDS011;2830;50.656;7.568;2023-12-07T10:02:59;11.95;;;8.95;;
5616;SDS011;2830;50.656;7.568;2023-12-07T10:05:26;16.60;;;8.70;;
5616;SDS011;2830;50.656;7.568;2023-12-07T10:07:53;14.63;;;8.95;;
5616;SDS011;2830;50.656;7.568;2023-12-07T10:10:20;17.05;;;8.73;;
5616;SDS011;2830;50.656;7.568;2023-12-07T10:12:56;14.32;;;9.13;;
5616;SDS011;2830;50.656;7.568;2023-12-07T10:15:25;12.68;;;9.65;;
5616;SDS011;2830;50.656;7.568;2023-12-07T10:17:53;12.52;;;8.07;;
5616;SDS011;2830;50.656;7.568;2023-12-07T10:20:21;11.65;;;6.10;;
5616;SDS011;2830;50.656;7.568;2023-12-07T10:23:05;12.43;;;7.90;;
5616;SDS011;2830;50.656;7.568;2023-12-07T10:25:36;12.02;;;7.28;;
5616;SDS011;2830;50.656;7.568;2023-12-07T10:28:08;10.45;;;6.97;;
5616;SDS011;2830;50.656;7.568;2023-12-07T10:30:39;13.60;;;7.88;;
5616;SDS011;2830;50.656;7.568;2023-12-07T10:33:09;13.43;;;7.38;;
5616;SDS011;2830;50.656;7.568;2023-12-07T10:35:39;10.50;;;7.03;;
5616;SDS011;2830;50.656;7.568;2023-12-07T10:38:07;10.10;;;7.25;;
5616;SDS011;2830;50.656;7.568;2023-12-07T10:40:37;14.77;;;8.65;;
5616;SDS011;2830;50.656;7.568;2023-12-07T10:43:05;14.63;;;8.52;;
5616;SDS011;2830;50.656;7.568;2023-12-07T10:45:33;12.07;;;7.93;;
5616;SDS011;2830;50.656;7.568;2023-12-07T10:48:02;12.20;;;7.80;;
5616;SDS011;2830;50.656;7.568;2023-12-07T10:50:33;17.80;;;11.23;;
5616;SDS011;2830;50.656;7.568;2023-12-07T10:53:04;32.47;;;18.00;;
5616;SDS011;2830;50.656;7.568;2023-12-07T10:55:59;11.32;;;8.02;;
5616;SDS011;2830;50.656;7.568;2023-12-07T10:58:25;17.52;;;10.30;;
5616;SDS011;2830;50.656;7.568;2023-12-07T11:00:53;13.25;;;8.18;;
5616;SDS011;2830;50.656;7.568;2023-12-07T11:03:21;13.63;;;7.65;;
5616;SDS011;2830;50.656;7.568;2023-12-07T11:05:48;13.48;;;6.50;;
5616;SDS011;2830;50.656;7.568;2023-12-07T11:08:29;13.90;;;8.10;;
5616;SDS011;2830;50.656;7.568;2023-12-07T11:11:04;15.30;;;8.70;;
5616;SDS011;2830;50.656;7.568;2023-12-07T11:13:44;9.88;;;6.88;;
5616;SDS011;2830;50.656;7.568;2023-12-07T11:16:28;15.38;;;7.28;;
5616;SDS011;2830;50.656;7.568;2023-12-07T11:18:55;16.52;;;8.55;;
5616;SDS011;2830;50.656;7.568;2023-12-07T11:21:22;27.95;;;13.77;;
5616;SDS011;2830;50.656;7.568;2023-12-07T11:23:49;9.00;;;6.22;;
5616;SDS011;2830;50.656;7.568;2023-12-07T11:26:18;12.15;;;7.63;;
5616;SDS011;2830;50.656;7.568;2023-12-07T11:28:54;14.80;;;7.80;;
5616;SDS011;2830;50.656;7.568;2023-12-07T11:31:21;10.82;;;6.45;;
5616;SDS011;2830;50.656;7.568;2023-12-07T11:33:48;8.73;;;6.72;;
5616;SDS011;2830;50.656;7.568;2023-12-07T11:36:16;8.32;;;6.40;;
5616;SDS011;2830;50.656;7.568;2023-12-07T11:39:15;8.23;;;5.55;;
5616;SDS011;2830;50.656;7.568;2023-12-07T11:41:53;9.50;;;6.90;;
5616;SDS011;2830;50.656;7.568;2023-12-07T11:44:34;9.37;;;5.50;;
5616;SDS011;2830;50.656;7.568;2023-12-07T11:47:03;7.20;;;4.83;;
5616;SDS011;2830;50.656;7.568;2023-12-07T11:49:31;9.63;;;5.00;;
5616;SDS011;2830;50.656;7.568;2023-12-07T11:52:12;10.03;;;6.07;;
5616;SDS011;2830;50.656;7.568;2023-12-07T11:54:43;13.20;;;7.10;;
5616;SDS011;2830;50.656;7.568;2023-12-07T11:57:11;12.33;;;6.70;;
5616;SDS011;2830;50.656;7.568;2023-12-07T11:59:39;13.97;;;7.73;;
5616;SDS011;2830;50.656;7.568;2023-12-07T12:02:05;10.57;;;7.53;;
5616;SDS011;2830;50.656;7.568;2023-12-07T12:04:32;9.80;;;7.03;;
5616;SDS011;2830;50.656;7.568;2023-12-07T12:07:00;13.00;;;7.40;;
5616;SDS011;2830;50.656;7.568;2023-12-07T12:09:27;11.65;;;7.18;;
5616;SDS011;2830;50.656;7.568;2023-12-07T12:11:58;11.07;;;6.95;;
5616;SDS011;2830;50.656;7.568;2023-12-07T12:14:28;9.50;;;5.90;;
5616;SDS011;2830;50.656;7.568;2023-12-07T12:16:55;11.00;;;5.55;;
5616;SDS011;2830;50.656;7.568;2023-12-07T12:19:23;8.65;;;6.07;;
5616;SDS011;2830;50.656;7.568;2023-12-07T12:22:03;10.40;;;6.50;;
5616;SDS011;2830;50.656;7.568;2023-12-07T12:24:33;11.10;;;7.03;;
5616;SDS011;2830;50.656;7.568;2023-12-07T12:27:02;12.83;;;7.60;;
5616;SDS011;2830;50.656;7.568;2023-12-07T12:29:29;8.37;;;5.53;;
5616;SDS011;2830;50.656;7.568;2023-12-07T12:32:01;11.95;;;6.22;;
5616;SDS011;2830;50.656;7.568;2023-12-07T12:34:28;10.73;;;5.65;;
5616;SDS011;2830;50.656;7.568;2023-12-07T12:36:56;12.05;;;6.70;;
5616;SDS011;2830;50.656;7.568;2023-12-07T12:39:27;7.82;;;5.57;;
5616;SDS011;2830;50.656;7.568;2023-12-07T12:41:59;10.52;;;6.53;;
5616;SDS011;2830;50.656;7.568;2023-12-07T12:44:27;7.57;;;5.20;;
5616;SDS011;2830;50.656;7.568;2023-12-07T12:47:03;8.90;;;6.07;;
5616;SDS011;2830;50.656;7.568;2023-12-07T12:49:35;8.95;;;6.15;;
5616;SDS011;2830;50.656;7.568;2023-12-07T12:52:03;9.98;;;6.20;;
5616;SDS011;2830;50.656;7.568;2023-12-07T12:54:31;10.23;;;6.50;;
5616;SDS011;2830;50.656;7.568;2023-12-07T12:57:01;13.88;;;6.53;;
5616;SDS011;2830;50.656;7.568;2023-12-07T12:59:28;9.40;;;5.97;;
5616;SDS011;2830;50.656;7.568;2023-12-07T13:01:55;9.13;;;6.28;;
5616;SDS011;2830;50.656;7.568;2023-12-07T13:04:23;9.38;;;5.80;;
5616;SDS011;2830;50.656;7.568;2023-12-07T13:06:51;10.10;;;5.93;;
5616;SDS011;2830;50.656;7.568;2023-12-07T13:09:18;9.20;;;6.25;;
5616;SDS011;2830;50.656;7.568;2023-12-07T13:11:46;12.52;;;5.97;;
5616;SDS011;2830;50.656;7.568;2023-12-07T13:14:13;8.02;;;5.75;;
5616;SDS011;2830;50.656;7.568;2023-12-07T13:16:40;11.18;;;6.72;;
5616;SDS011;2830;50.656;7.568;2023-12-07T13:19:07;10.52;;;6.20;;
5616;SDS011;2830;50.656;7.568;2023-12-07T13:21:34;9.77;;;6.55;;
5616;SDS011;2830;50.656;7.568;2023-12-07T13:24:00;8.00;;;6.13;;
5616;SDS011;2830;50.656;7.568;2023-12-07T13:26:30;9.43;;;5.57;;
5616;SDS011;2830;50.656;7.568;2023-12-07T13:28:57;8.32;;;5.88;;
5616;SDS011;2830;50.656;7.568;2023-12-07T13:31:24;8.63;;;6.10;;
5616;SDS011;2830;50.656;7.568;2023-12-07T13:33:51;9.68;;;6.88;;
5616;SDS011;2830;50.656;7.568;2023-12-07T13:36:23;11.10;;;5.78;;
5616;SDS011;2830;50.656;7.568;2023-12-07T13:38:52;11.00;;;6.50;;
5616;SDS011;2830;50.656;7.568;2023-12-07T13:41:19;20.63;;;7.55;;
5616;SDS011;2830;50.656;7.568;2023-12-07T13:43:46;11.75;;;6.90;;
5616;SDS011;2830;50.656;7.568;2023-12-07T13:46:15;11.98;;;7.72;;
5616;SDS011;2830;50.656;7.568;2023-12-07T13:48:43;11.15;;;7.40;;
5616;SDS011;2830;50.656;7.568;2023-12-07T13:51:09;11.32;;;7.03;;
5616;SDS011;2830;50.656;7.568;2023-12-07T13:53:36;12.50;;;7.03;;
5616;SDS011;2830;50.656;7.568;2023-12-07T13:56:04;14.88;;;7.22;;
5616;SDS011;2830;50.656;7.568;2023-12-07T13:58:32;15.57;;;8.40;;
5616;SDS011;2830;50.656;7.568;2023-12-07T14:01:01;16.00;;;9.25;;
5616;SDS011;2830;50.656;7.568;2023-12-07T14:03:27;12.68;;;7.15;;
5616;SDS011;2830;50.656;7.568;2023-12-07T14:05:54;11.23;;;7.00;;
5616;SDS011;2830;50.656;7.568;2023-12-07T14:08:21;13.70;;;8.68;;
5616;SDS011;2830;50.656;7.568;2023-12-07T14:10:48;15.25;;;8.60;;
5616;SDS011;2830;50.656;7.568;2023-12-07T14:13:15;18.92;;;10.93;;
5616;SDS011;2830;50.656;7.568;2023-12-07T14:15:44;17.08;;;10.93;;
5616;SDS011;2830;50.656;7.568;2023-12-07T14:18:11;17.20;;;10.93;;
5616;SDS011;2830;50.656;7.568;2023-12-07T14:20:40;12.10;;;8.30;;
5616;SDS011;2830;50.656;7.568;2023-12-07T14:23:28;12.70;;;7.95;;
5616;SDS011;2830;50.656;7.568;2023-12-07T14:25:54;21.65;;;11.65;;
5616;SDS011;2830;50.656;7.568;2023-12-07T14:28:27;13.52;;;8.68;;
5616;SDS011;2830;50.656;7.568;2023-12-07T14:30:56;13.75;;;8.18;;
5616;SDS011;2830;50.656;7.568;2023-12-07T14:33:23;12.05;;;7.43;;
5616;SDS011;2830;50.656;7.568;2023-12-07T14:35:50;12.45;;;8.25;;
5616;SDS011;2830;50.656;7.568;2023-12-07T14:38:17;18.35;;;9.30;;
5616;SDS011;2830;50.656;7.568;2023-12-07T14:40:44;14.20;;;8.45;;
5616;SDS011;2830;50.656;7.568;2023-12-07T14:43:11;14.90;;;8.80;;
5616;SDS011;2830;50.656;7.568;2023-12-07T14:45:37;14.27;;;7.68;;
5616;SDS011;2830;50.656;7.568;2023-12-07T14:48:04;15.88;;;9.45;;
5616;SDS011;2830;50.656;7.568;2023-12-07T14:50:32;14.00;;;8.75;;
5616;SDS011;2830;50.656;7.568;2023-12-07T14:52:59;16.58;;;9.43;;
5616;SDS011;2830;50.656;7.568;2023-12-07T14:55:25;15.68;;;8.98;;
5616;SDS011;2830;50.656;7.568;2023-12-07T14:57:53;13.35;;;8.38;;
5616;SDS011;2830;50.656;7.568;2023-12-07T15:00:19;13.20;;;7.88;;
5616;SDS011;2830;50.656;7.568;2023-12-07T15:02:46;18.63;;;9.38;;
5616;SDS011;2830;50.656;7.568;2023-12-07T15:05:13;20.20;;;8.85;;
5616;SDS011;2830;50.656;7.568;2023-12-07T15:07:40;25.08;;;10.25;;
5616;SDS011;2830;50.656;7.568;2023-12-07T15:10:07;14.45;;;8.40;;